createdAt,value
2022-12-08T00:00:40.591Z,100459.25
2022-12-08T00:03:15.544Z,100458.41
2022-12-08T00:06:08.673Z,100451.06
2022-12-08T00:09:00.370Z,100456.44
2022-12-08T00:11:34.540Z,100462.16
2022-12-08T00:14:09.115Z,100455.94
2022-12-08T00:16:43.503Z,100448.75
2022-12-08T00:19:18.156Z,100453.03
2022-12-08T00:21:54.705Z,100446.56
2022-12-08T00:24:32.637Z,100449.91
2022-12-08T00:27:07.549Z,100442.12
2022-12-08T00:29:43.975Z,100448.06
2022-12-08T00:32:18.155Z,100441.13
2022-12-08T00:34:52.601Z,100437.94
2022-12-08T00:37:28.275Z,100447.75
2022-12-08T00:40:03.025Z,100452.41
2022-12-08T00:42:37.324Z,100445.34
2022-12-08T00:45:12.940Z,100453.53
2022-12-08T00:47:47.059Z,100451.53
2022-12-08T00:50:21.609Z,100454.28
2022-12-08T00:52:57.093Z,100453.53
2022-12-08T00:55:31.808Z,100461.59
2022-12-08T00:58:06.125Z,100454.25
2022-12-08T01:00:42.166Z,100445.69
2022-12-08T01:03:16.660Z,100443.22
2022-12-08T01:05:51.253Z,100450.09
2022-12-08T01:08:27.657Z,100446.09
2022-12-08T01:11:04.920Z,100444.91
2022-12-08T01:13:39.164Z,100440.41
2022-12-08T01:16:23.233Z,100447.03
2022-12-08T01:18:58.388Z,100442.25
2022-12-08T01:21:32.775Z,100435.59
2022-12-08T01:24:11.847Z,100449.50
2022-12-08T01:26:46.763Z,100438.62
2022-12-08T01:29:20.952Z,100439.38
2022-12-08T01:31:55.457Z,100436.38
2022-12-08T01:34:29.682Z,100432.44
2022-12-08T01:37:04.584Z,100439.03
2022-12-08T01:39:41.327Z,100437.41
2022-12-08T01:42:22.173Z,100439.66
2022-12-08T01:45:00.069Z,100435.78
2022-12-08T01:47:39.489Z,100432.38
2022-12-08T01:50:15.573Z,100434.69
2022-12-08T01:52:53.806Z,100433.47
2022-12-08T01:55:34.810Z,100421.03
2022-12-08T01:58:15.407Z,100421.69
2022-12-08T02:00:50.689Z,100414.28
2022-12-08T02:03:30.405Z,100416.63
2022-12-08T02:06:05.218Z,100414.06
2022-12-08T02:08:41.702Z,100410.97
2022-12-08T02:11:17.431Z,100414.44
2022-12-08T02:13:54.323Z,100408.47
2022-12-08T02:16:39.591Z,100413.47
2022-12-08T02:19:38.055Z,100401.41
2022-12-08T02:22:16.205Z,100404.50
2022-12-08T02:24:58.460Z,100413.34
2022-12-08T02:27:49.163Z,100398.62
2022-12-08T02:30:27.510Z,100402.94
2022-12-08T02:33:40.800Z,100408.41
2022-12-08T02:36:23.781Z,100398.25
2022-12-08T02:39:03.866Z,100403.66
2022-12-08T02:41:47.243Z,100397.13
2022-12-08T02:44:30.339Z,100401.41
2022-12-08T02:47:08.914Z,100395.50
2022-12-08T02:49:43.379Z,100390.91
2022-12-08T02:52:41.455Z,100389.37
2022-12-08T02:55:27.509Z,100388.50
2022-12-08T02:58:31.160Z,100382.69
2022-12-08T03:01:26.130Z,100381.97
2022-12-08T03:04:08.097Z,100378.44
2022-12-08T03:06:49.649Z,100378.06
2022-12-08T03:09:35.060Z,100372.72
2022-12-08T03:12:17.981Z,100367.97
2022-12-08T03:14:54.996Z,100369.97
2022-12-08T03:17:32.345Z,100361.69
2022-12-08T03:20:13.366Z,100353.50
2022-12-08T03:22:49.625Z,100351.84
2022-12-08T03:25:28.495Z,100350.69
2022-12-08T03:28:02.893Z,100359.81
2022-12-08T03:30:40.983Z,100352.50
2022-12-08T03:33:20.105Z,100352.56
2022-12-08T03:35:55.586Z,100349.41
2022-12-08T03:38:39.162Z,100349.84
2022-12-08T03:41:21.059Z,100354.09
2022-12-08T03:43:57.264Z,100352.59
2022-12-08T03:46:32.519Z,100344.41
2022-12-08T03:49:07.224Z,100338.06
2022-12-08T03:51:41.914Z,100340.69
2022-12-08T03:54:16.087Z,100339.91
2022-12-08T03:56:51.953Z,100331.34
2022-12-08T03:59:26.683Z,100343.44
2022-12-08T04:02:01.166Z,100329.03
2022-12-08T04:04:36.312Z,100336.53
2022-12-08T04:07:10.430Z,100335.44
2022-12-08T04:09:46.147Z,100335.53
2022-12-08T04:12:21.655Z,100340.16
2022-12-08T04:14:56.058Z,100346.41
2022-12-08T04:17:30.286Z,100340.62
2022-12-08T04:20:05.235Z,100337.25
2022-12-08T04:22:40.059Z,100330.16
2022-12-08T04:25:14.706Z,100332.09
2022-12-08T04:27:50.262Z,100329.69
2022-12-08T04:30:25.709Z,100337.47
2022-12-08T04:32:59.923Z,100333.66
2022-12-08T04:35:34.428Z,100332.13
2022-12-08T04:38:09.139Z,100327.38
2022-12-08T04:40:43.792Z,100326.94
2022-12-08T04:43:19.512Z,100313.44
2022-12-08T04:45:54.039Z,100320.00
2022-12-08T04:48:28.355Z,100311.13
2022-12-08T04:51:02.852Z,100319.03
2022-12-08T04:53:39.916Z,100335.44
2022-12-08T04:56:18.003Z,100325.94
2022-12-08T04:58:53.833Z,100321.19
2022-12-08T05:01:28.382Z,100326.13
2022-12-08T05:04:02.587Z,100325.59
2022-12-08T05:06:36.939Z,100324.16
2022-12-08T05:09:11.186Z,100335.87
2022-12-08T05:11:49.006Z,100334.56
2022-12-08T05:14:24.844Z,100318.19
2022-12-08T05:17:00.315Z,100325.94
2022-12-08T05:19:36.887Z,100327.06
2022-12-08T05:22:11.626Z,100323.03
2022-12-08T05:24:47.700Z,100322.03
2022-12-08T05:27:22.382Z,100320.94
2022-12-08T05:29:59.073Z,100327.56
2022-12-08T05:32:33.611Z,100317.44
2022-12-08T05:35:08.580Z,100325.22
2022-12-08T05:37:43.039Z,100317.00
2022-12-08T05:40:17.456Z,100322.34
2022-12-08T05:42:53.110Z,100305.44
2022-12-08T05:45:28.796Z,100318.09
2022-12-08T05:48:03.438Z,100316.16
2022-12-08T05:50:37.507Z,100318.19
2022-12-08T05:53:11.937Z,100322.00
2022-12-08T05:55:46.587Z,100319.66
2022-12-08T05:58:24.330Z,100311.81
2022-12-08T06:00:59.918Z,100315.31
2022-12-08T06:03:35.245Z,100308.69
2022-12-08T06:06:09.460Z,100307.84
2022-12-08T06:08:43.979Z,100308.03
2022-12-08T06:11:22.499Z,100301.97
2022-12-08T06:13:58.154Z,100302.84
2022-12-08T06:16:33.820Z,100316.84
2022-12-08T06:19:08.406Z,100311.09
2022-12-08T06:21:42.456Z,100311.63
2022-12-08T06:24:17.012Z,100318.31
2022-12-08T06:26:51.282Z,100322.91
2022-12-08T06:29:26.039Z,100321.34
2022-12-08T06:32:01.664Z,100324.87
2022-12-08T06:34:36.086Z,100325.59
2022-12-08T06:37:10.336Z,100322.31
2022-12-08T06:39:44.893Z,100335.47
2022-12-08T06:42:36.571Z,100321.13
2022-12-08T06:45:11.974Z,100321.47
2022-12-08T06:47:47.473Z,100331.59
2022-12-08T06:50:22.203Z,100318.41
2022-12-08T06:53:04.806Z,100319.03
2022-12-08T06:55:58.705Z,100321.69
2022-12-08T06:58:33.914Z,100323.12
2022-12-08T07:01:09.512Z,100321.47
2022-12-08T07:03:46.261Z,100329.75
2022-12-08T07:06:23.603Z,100322.19
2022-12-08T07:08:57.744Z,100312.94
2022-12-08T07:11:32.262Z,100310.31
2022-12-08T07:14:06.478Z,100304.34
2022-12-08T07:16:41.205Z,100303.19
2022-12-08T07:19:17.108Z,100304.31
2022-12-08T07:21:51.566Z,100303.19
2022-12-08T07:24:25.907Z,100314.78
2022-12-08T07:27:00.416Z,100317.50
2022-12-08T07:29:34.702Z,100319.84
2022-12-08T07:32:09.864Z,100310.94
2022-12-08T07:34:47.152Z,100293.38
2022-12-08T07:37:21.941Z,100295.72
2022-12-08T07:39:56.601Z,100304.53
2022-12-08T07:42:31.113Z,100302.19
2022-12-08T07:45:05.760Z,100306.34
2022-12-08T07:47:40.188Z,100295.25
2022-12-08T07:50:16.112Z,100284.91
2022-12-08T07:52:51.135Z,100288.97
2022-12-08T07:55:25.265Z,100287.63
2022-12-08T07:57:59.918Z,100279.09
2022-12-08T08:00:34.128Z,100267.66
2022-12-08T08:03:09.073Z,100267.44
2022-12-08T08:05:45.254Z,100266.16
2022-12-08T08:08:19.928Z,100267.13
2022-12-08T08:10:54.244Z,100259.16
2022-12-08T08:13:28.680Z,100267.97
2022-12-08T08:16:05.865Z,100267.56
2022-12-08T08:18:41.128Z,100275.34
2022-12-08T08:21:43.871Z,100288.03
2022-12-08T08:24:11.796Z,100303.12
2022-12-08T08:26:45.953Z,100307.06
2022-12-08T08:29:20.520Z,100280.28
2022-12-08T08:31:54.720Z,100262.41
2022-12-08T08:34:29.079Z,100261.78
2022-12-08T08:37:04.684Z,100272.41
2022-12-08T08:39:39.231Z,100272.34
2022-12-08T08:42:13.333Z,100295.03
2022-12-08T08:44:48.131Z,100310.75
2022-12-08T08:47:22.371Z,100321.34
2022-12-08T08:49:57.173Z,100313.47
2022-12-08T08:52:35.643Z,100308.59
2022-12-08T08:55:10.602Z,100306.03
2022-12-08T08:57:45.076Z,100300.53
2022-12-08T09:00:20.328Z,100289.84
2022-12-08T09:06:16.912Z,100270.38
2022-12-08T09:08:53.298Z,100264.25
2022-12-08T09:11:27.593Z,100254.59
2022-12-08T09:14:02.708Z,100262.09
2022-12-08T09:16:41.996Z,100273.59
2022-12-08T09:19:37.574Z,100270.66
2022-12-08T09:22:11.802Z,100269.19
2022-12-08T09:24:47.954Z,100262.50
2022-12-08T09:27:22.364Z,100261.78
2022-12-08T09:29:57.409Z,100255.50
2022-12-08T09:32:31.697Z,100260.25
2022-12-08T09:35:06.817Z,100247.34
2022-12-08T09:37:40.977Z,100248.38
2022-12-08T09:40:21.293Z,100250.47
2022-12-08T09:43:03.492Z,100253.19
2022-12-08T09:45:38.232Z,100253.13
2022-12-08T09:48:17.628Z,100251.47
2022-12-08T09:50:56.843Z,100254.75
2022-12-08T10:09:59.635Z,100215.62
2022-12-08T10:12:42.820Z,100238.13
2022-12-08T10:15:35.279Z,100222.28
2022-12-08T10:18:16.084Z,100206.31
2022-12-08T10:20:51.952Z,100208.91
2022-12-08T10:23:31.058Z,100209.44
2022-12-08T10:26:08.887Z,100203.81
2022-12-08T10:28:45.428Z,100208.69
2022-12-08T10:31:22.301Z,100206.84
2022-12-08T10:34:00.410Z,100196.09
2022-12-08T10:36:51.144Z,100187.13
2022-12-08T10:39:32.473Z,100178.09
2022-12-08T10:42:18.790Z,100169.22
2022-12-08T10:45:02.027Z,100143.22
2022-12-08T10:47:38.109Z,100140.72
2022-12-08T10:50:43.776Z,100136.38
2022-12-08T10:53:24.878Z,100142.44
2022-12-08T10:56:08.899Z,100129.56
2022-12-08T10:58:47.032Z,100127.19
2022-12-08T11:01:23.069Z,100125.47
2022-12-08T11:04:00.229Z,100108.84
2022-12-08T11:06:38.022Z,100098.63
2022-12-08T11:09:35.333Z,100102.97
2022-12-08T11:12:14.938Z,100095.28
2022-12-08T11:14:58.202Z,100095.38
2022-12-08T11:17:39.571Z,100094.63
2022-12-08T11:20:24.439Z,100100.94
2022-12-08T11:22:59.043Z,100104.00
2022-12-08T11:25:34.150Z,100099.56
2022-12-08T11:28:12.521Z,100105.53
2022-12-08T11:30:51.273Z,100094.87
2022-12-08T11:33:27.891Z,100092.75
2022-12-08T11:36:14.671Z,100101.28
2022-12-08T11:39:16.041Z,100080.81
2022-12-08T11:42:11.304Z,100089.44
2022-12-08T11:44:52.639Z,100086.97
2022-12-08T11:47:33.414Z,100080.59
2022-12-08T11:50:21.733Z,100095.72
2022-12-08T11:52:59.569Z,100097.31
2022-12-08T11:55:41.586Z,100090.25
2022-12-08T11:58:21.562Z,100093.91
2022-12-08T12:00:56.676Z,100083.19
2022-12-08T12:03:37.606Z,100081.13
2022-12-08T12:09:38.431Z,100062.78
2022-12-08T12:12:27.312Z,100054.72
2022-12-08T12:15:47.633Z,100063.25
2022-12-08T12:18:36.389Z,100064.63
2022-12-08T12:21:19.393Z,100057.31
2022-12-08T12:23:57.883Z,100053.13
2022-12-08T12:26:37.268Z,100047.59
2022-12-08T12:30:03.100Z,100044.63
2022-12-08T12:33:03.223Z,100032.75
2022-12-08T12:35:42.703Z,100037.03
2022-12-08T12:38:43.918Z,100035.31
2022-12-08T12:41:47.339Z,100020.31
2022-12-08T12:44:43.348Z,100020.22
2022-12-08T12:54:13.573Z,100040.41
2022-12-08T13:00:37.122Z,100028.81
2022-12-08T13:03:17.049Z,100021.53
2022-12-08T13:05:54.540Z,100026.47
2022-12-08T13:08:29.864Z,100013.22
2022-12-08T13:19:03.176Z,100007.59
2022-12-08T13:25:37.084Z,99996.09
2022-12-08T13:28:20.042Z,100007.22
2022-12-08T13:30:55.807Z,100003.59
2022-12-08T13:33:33.693Z,100007.22
2022-12-08T13:36:18.524Z,100002.53
2022-12-08T13:38:57.531Z,99993.03
2022-12-08T13:41:37.325Z,99999.94
2022-12-08T14:03:00.749Z,99993.47
2022-12-08T14:06:10.912Z,99991.03
2022-12-08T14:08:59.982Z,100000.37
2022-12-08T14:11:37.495Z,99990.31
2022-12-08T14:14:32.707Z,99998.50
2022-12-08T14:17:14.478Z,100004.53
2022-12-08T14:20:01.706Z,100004.53
2022-12-08T14:22:37.120Z,100010.94
2022-12-08T14:25:16.220Z,100007.03
2022-12-08T14:27:50.769Z,100011.19
2022-12-08T14:30:30.606Z,99990.47
2022-12-08T14:33:06.405Z,99993.56
2022-12-08T14:35:42.453Z,99984.38
2022-12-08T14:38:18.572Z,99980.97
2022-12-08T14:41:02.880Z,99984.22
2022-12-08T14:43:37.438Z,99970.69
2022-12-08T14:46:22.634Z,99970.34
2022-12-08T14:48:58.320Z,99971.97
2022-12-08T14:51:34.889Z,99982.56
2022-12-08T14:54:13.409Z,99979.50
2022-12-08T14:56:52.081Z,99977.22
2022-12-08T15:02:33.204Z,99982.91
2022-12-08T15:05:13.636Z,99990.56
2022-12-08T15:07:51.649Z,99988.53
2022-12-08T15:10:29.671Z,99984.28
2022-12-08T15:13:08.882Z,99980.88
2022-12-08T15:15:50.143Z,99975.84
2022-12-08T15:18:33.580Z,99970.13
2022-12-08T15:21:10.216Z,99975.41
2022-12-08T15:23:47.482Z,99969.28
2022-12-08T15:26:23.695Z,99973.03
2022-12-08T15:32:20.987Z,99976.25
2022-12-08T15:34:55.500Z,99979.31
2022-12-08T15:37:29.720Z,99988.25
2022-12-08T15:40:07.940Z,99990.56
2022-12-08T15:42:42.710Z,99992.25
2022-12-08T15:45:18.575Z,99983.56
2022-12-08T16:07:22.659Z,99997.38
2022-12-08T16:09:58.247Z,100003.16
2022-12-08T16:13:55.125Z,100002.66
2022-12-08T16:15:55.526Z,100004.09
2022-12-08T16:18:36.807Z,99997.28
2022-12-08T16:21:31.681Z,100001.72
2022-12-08T16:24:14.023Z,100008.72
2022-12-08T16:29:47.169Z,99998.75
2022-12-08T16:42:43.594Z,99965.19
2022-12-08T16:45:20.350Z,99972.31
2022-12-08T16:47:56.797Z,99957.63
2022-12-08T16:50:33.741Z,99961.38
2022-12-08T16:53:11.174Z,99966.44
2022-12-08T16:55:47.888Z,99965.56
2022-12-08T16:58:23.630Z,99972.00
2022-12-08T17:00:58.352Z,99968.44
2022-12-08T17:03:34.529Z,99979.69
2022-12-08T17:06:45.289Z,99976.94
2022-12-08T17:09:19.893Z,99975.34
2022-12-08T17:11:58.801Z,99965.47
2022-12-08T17:14:37.844Z,99975.59
2022-12-08T17:17:12.315Z,99974.38
2022-12-08T17:19:55.023Z,99985.28
2022-12-08T17:22:29.458Z,99985.87
2022-12-08T17:25:05.398Z,99987.50
2022-12-08T17:30:56.825Z,100000.25
2022-12-08T17:33:31.469Z,99993.63
2022-12-08T17:36:17.575Z,99995.34
2022-12-08T17:38:52.055Z,99985.28
2022-12-08T17:41:27.622Z,99987.66
2022-12-08T17:44:12.439Z,99984.78
2022-12-08T17:46:52.913Z,99983.84
2022-12-08T17:49:34.074Z,99990.91
2022-12-08T17:52:08.280Z,100000.13
2022-12-08T17:54:46.991Z,99989.38
2022-12-08T17:57:21.225Z,100002.66
2022-12-08T17:59:56.059Z,99994.56
2022-12-08T18:02:33.571Z,99998.06
2022-12-08T18:05:08.801Z,100001.97
2022-12-08T18:07:43.416Z,99997.97
2022-12-08T18:10:19.248Z,100001.12
2022-12-08T18:12:53.402Z,100003.94
2022-12-08T18:15:28.815Z,100000.78
2022-12-08T18:18:05.154Z,99998.56
2022-12-08T18:20:39.714Z,100011.00
2022-12-08T18:23:14.074Z,100001.38
2022-12-08T18:25:48.579Z,99992.28
2022-12-08T18:28:23.819Z,100002.31
2022-12-08T18:30:58.500Z,100003.94
2022-12-08T18:37:10.490Z,99989.97
2022-12-08T18:39:46.553Z,99989.56
2022-12-08T18:42:28.393Z,100000.13
2022-12-08T18:45:04.549Z,99991.84
2022-12-08T18:47:40.799Z,99974.44
2022-12-08T18:50:16.612Z,99963.66
2022-12-08T18:52:51.142Z,99970.66
2022-12-08T18:55:27.316Z,99982.72
2022-12-08T18:58:01.482Z,99979.84
2022-12-08T19:00:36.316Z,99977.97
2022-12-08T19:03:10.869Z,99977.59
2022-12-08T19:05:45.647Z,99980.91
2022-12-08T19:08:20.742Z,99980.59
2022-12-08T19:10:56.971Z,99984.72
2022-12-08T19:13:31.660Z,99976.56
2022-12-08T19:16:07.522Z,99967.84
2022-12-08T19:18:43.008Z,99977.75
2022-12-08T19:21:17.756Z,99968.91
2022-12-08T19:23:52.855Z,99982.06
2022-12-08T19:26:30.024Z,99975.00
2022-12-08T19:29:05.026Z,99980.44
2022-12-08T19:31:40.336Z,99973.19
2022-12-08T19:34:16.003Z,99975.94
2022-12-08T19:36:50.885Z,99972.84
2022-12-08T19:39:42.771Z,99973.78
2022-12-08T19:42:37.966Z,99981.72
2022-12-08T19:45:15.175Z,99983.16
2022-12-08T19:47:50.205Z,99984.72
2022-12-08T19:50:40.597Z,99974.19
2022-12-08T19:53:16.979Z,99979.13
2022-12-08T19:55:51.973Z,99985.94
2022-12-08T19:58:28.014Z,99992.53
2022-12-08T20:01:02.631Z,99985.94
2022-12-08T20:03:37.416Z,99989.97
2022-12-08T20:06:16.677Z,100000.09
2022-12-08T20:08:52.458Z,100010.00
2022-12-08T20:12:08.225Z,100005.69
2022-12-08T20:14:46.029Z,100005.69
2022-12-08T20:17:20.614Z,100002.66
2022-12-08T20:19:55.350Z,99997.62
2022-12-08T20:22:29.868Z,100003.56
2022-12-08T20:25:05.295Z,99988.16
2022-12-08T20:27:41.097Z,99983.13
2022-12-08T20:30:17.442Z,99993.41
2022-12-08T20:32:53.107Z,99987.88
2022-12-08T20:35:27.874Z,99987.03
2022-12-08T20:38:02.414Z,99959.50
2022-12-08T20:40:37.118Z,99949.56
2022-12-08T20:43:12.806Z,99969.78
2022-12-08T20:45:47.741Z,99973.91
2022-12-08T20:48:22.419Z,99968.16
2022-12-08T20:50:57.257Z,99975.88
2022-12-08T20:53:31.661Z,99966.97
2022-12-08T20:56:07.082Z,99969.16
2022-12-08T20:58:44.125Z,99968.16
2022-12-08T21:01:21.640Z,99967.62
2022-12-08T21:03:56.053Z,99968.25
2022-12-08T21:06:30.795Z,99963.25
2022-12-08T21:09:05.511Z,99966.22
2022-12-08T21:11:40.210Z,99978.91
2022-12-08T21:14:15.937Z,99989.69
2022-12-08T21:16:50.990Z,99991.72
2022-12-08T21:19:25.463Z,99995.63
2022-12-08T21:22:00.104Z,99995.72
2022-12-08T21:24:34.999Z,100001.00
2022-12-08T21:27:09.642Z,99997.25
2022-12-08T21:29:45.250Z,99997.84
2022-12-08T21:32:22.420Z,99999.69
2022-12-08T21:34:59.921Z,100001.22
2022-12-08T21:37:34.743Z,100007.44
2022-12-08T21:40:10.421Z,100002.34
2022-12-08T21:42:46.111Z,99998.16
2022-12-08T21:45:22.686Z,99991.03
2022-12-08T21:47:59.289Z,99990.19
2022-12-08T21:50:34.581Z,99990.44
2022-12-08T21:53:09.105Z,99991.09
2022-12-08T21:55:43.722Z,99983.34
2022-12-08T21:58:18.235Z,99958.09
2022-12-08T22:00:54.315Z,99970.69
2022-12-08T22:03:30.035Z,99972.75
2022-12-08T22:06:08.170Z,99973.53
2022-12-08T22:08:43.860Z,99977.94
2022-12-08T22:11:19.323Z,99988.97
2022-12-08T22:13:53.888Z,99987.41
2022-12-08T22:16:29.887Z,99987.34
2022-12-08T22:19:04.701Z,99974.75
2022-12-08T22:21:39.241Z,99978.72
2022-12-08T22:24:13.776Z,99978.37
2022-12-08T22:26:47.952Z,99985.87
2022-12-08T22:29:22.547Z,99985.53
2022-12-08T22:31:58.300Z,99984.06
2022-12-08T22:34:32.749Z,99989.34
2022-12-08T22:37:07.258Z,99990.88
2022-12-08T22:39:41.765Z,99992.63
2022-12-08T22:42:16.163Z,99993.69
2022-12-08T22:44:50.639Z,99993.41
2022-12-08T22:47:26.204Z,99998.34
2022-12-08T22:50:00.902Z,100002.59
2022-12-08T22:52:35.213Z,99994.78
2022-12-08T22:55:10.509Z,99996.62
2022-12-08T22:57:44.867Z,99992.63
2022-12-08T23:00:20.778Z,99988.22
2022-12-08T23:02:56.627Z,99986.69
2022-12-08T23:05:34.548Z,99983.97
2022-12-08T23:08:10.586Z,99977.91
2022-12-08T23:10:46.824Z,99985.31
2022-12-08T23:13:21.958Z,99982.00
2022-12-08T23:15:56.453Z,99986.44
2022-12-08T23:18:33.500Z,99985.66
2022-12-08T23:21:10.620Z,99977.34
2022-12-08T23:23:45.328Z,99983.72
2022-12-08T23:26:22.422Z,99979.06
2022-12-08T23:28:57.864Z,99975.22
2022-12-08T23:31:32.984Z,99972.34
2022-12-08T23:34:08.886Z,99974.97
2022-12-08T23:36:43.415Z,99979.06
2022-12-08T23:39:18.145Z,99979.66
2022-12-08T23:41:52.849Z,99961.03
2022-12-08T23:44:27.053Z,99970.97
2022-12-08T23:47:01.705Z,99957.03
2022-12-08T23:49:37.428Z,99966.31
2022-12-08T23:52:13.885Z,99951.59
2022-12-08T23:54:50.712Z,99949.19
2022-12-08T23:57:25.553Z,99957.19
2022-12-08T23:59:59.761Z,99949.88
